Time;durP1;ratioP1;P1;durP2;ratioP2;P2;SDS_P1;SDS_P2;PMS_P1;PMS_P2;Temp;Humidity;BMP_temperature;BMP_pressure;BME280_temperature;BME280_humidity;BME280_pressure;Samples;Min_cycle;Max_cycle;Signal;HPM_P1;HPM_P2
2022/05/10 00:01:23;;;;;;;10.65;3.98;;;;;;;10.83;46.92;101545.67;1735692;81;20994;-71
2022/05/10 00:03:49;;;;;;;8.18;3.08;;;;;;;10.87;46.90;101540.89;1757631;81;21307;-71
2022/05/10 00:06:15;;;;;;;8.48;3.95;;;;;;;10.89;46.88;101538.91;1754615;81;21006;-71
2022/05/10 00:08:41;;;;;;;12.00;3.65;;;;;;;10.88;46.84;101539.89;1733109;81;21187;-71
2022/05/10 00:11:09;;;;;;;10.05;5.10;;;;;;;10.87;46.82;101543.56;1757109;81;20879;-71
2022/05/10 00:13:35;;;;;;;7.50;3.87;;;;;;;10.87;46.78;101536.89;1728564;81;21534;-71
2022/05/10 00:16:01;;;;;;;10.05;3.08;;;;;;;10.89;46.76;101536.24;1726830;82;21002;-71
2022/05/10 00:18:28;;;;;;;11.33;3.30;;;;;;;10.88;46.75;101529.21;1756455;81;21057;-71
2022/05/10 00:20:54;;;;;;;4.90;3.08;;;;;;;10.87;46.72;101530.22;1757313;81;21293;-71
2022/05/10 00:23:20;;;;;;;7.25;3.37;;;;;;;10.86;46.69;101528.52;1739344;81;20903;-71
2022/05/10 00:25:46;;;;;;;9.63;3.20;;;;;;;10.84;46.67;101523.81;1757484;81;21735;-72
2022/05/10 00:28:12;;;;;;;12.35;3.35;;;;;;;10.77;46.69;101522.21;1757058;81;20959;-72
2022/05/10 00:30:38;;;;;;;10.38;3.47;;;;;;;10.75;46.68;101518.86;1757546;80;20978;-71
2022/05/10 00:33:04;;;;;;;8.85;3.50;;;;;;;10.73;46.71;101514.66;1738348;81;21149;-71
2022/05/10 00:35:31;;;;;;;9.30;3.58;;;;;;;10.69;46.71;101512.77;1729359;81;21119;-71
2022/05/10 00:37:59;;;;;;;9.18;3.65;;;;;;;10.67;46.71;101517.87;1727534;82;21070;-71
2022/05/10 00:40:31;;;;;;;8.58;3.33;;;;;;;10.64;46.71;101511.02;1691663;83;21078;-71
2022/05/10 00:43:12;;;;;;;9.33;3.20;;;;;;;10.63;46.75;101514.66;1731921;81;21148;-71
2022/05/10 00:46:00;;;;;;;8.50;3.52;;;;;;;10.61;46.75;101507.78;1722242;81;21296;-72
2022/05/10 00:48:37;;;;;;;8.65;3.90;;;;;;;10.56;46.77;101502.03;1721393;81;21061;-71
2022/05/10 00:51:44;;;;;;;8.33;3.95;;;;;;;10.49;46.80;101497.76;1757775;80;21018;-72
2022/05/10 00:54:38;;;;;;;14.00;4.92;;;;;;;10.47;46.84;101492.59;1756993;81;21055;-72
2022/05/10 00:57:28;;;;;;;10.58;4.58;;;;;;;10.43;46.88;101489.84;1736538;80;21499;-72
2022/05/10 01:00:08;;;;;;;12.65;3.65;;;;;;;10.43;46.92;101489.00;1765779;81;21302;-72
2022/05/10 01:02:39;;;;;;;8.15;4.90;;;;;;;10.44;46.93;101480.87;1735428;82;21510;-71
2022/05/10 01:05:28;;;;;;;6.90;3.40;;;;;;;10.42;46.96;101482.82;1724189;82;21090;-72
2022/05/10 01:08:05;;;;;;;11.28;3.70;;;;;;;10.37;47.00;101477.09;1729544;83;21074;-72
2022/05/10 01:10:37;;;;;;;6.50;3.35;;;;;;;10.36;47.03;101474.06;1728719;83;22111;-72
2022/05/10 01:13:28;;;;;;;8.53;3.70;;;;;;;10.32;47.08;101472.66;1729076;83;21124;-72
2022/05/10 01:16:12;;;;;;;7.75;2.95;;;;;;;10.30;47.13;101469.31;1708651;82;21067;-71
2022/05/10 01:18:39;;;;;;;7.17;3.50;;;;;;;10.29;47.17;101463.62;1701371;82;21030;-72
2022/05/10 01:21:16;;;;;;;9.63;3.85;;;;;;;10.26;47.22;101462.58;1709627;82;21063;-71
2022/05/10 01:23:56;;;;;;;7.87;3.75;;;;;;;10.25;47.26;101460.04;1729075;82;21094;-71
2022/05/10 01:26:26;;;;;;;;;;;;;;;10.19;47.31;101452.12;1723004;81;21100;-71
2022/05/10 01:28:56;;;;;;;10.85;3.20;;;;;;;10.13;47.41;101450.00;1726641;82;20587;-71
2022/05/10 01:31:27;;;;;;;10.70;3.90;;;;;;;10.08;47.45;101447.39;1729528;82;21087;-71
2022/05/10 01:33:58;;;;;;;8.90;4.08;;;;;;;10.07;47.51;101450.55;1729600;82;21022;-71
2022/05/10 01:36:47;;;;;;;12.10;3.77;;;;;;;10.07;47.58;101449.22;1703676;83;21037;-71
2022/05/10 01:39:35;;;;;;;8.95;3.75;;;;;;;10.03;47.66;101444.66;1730620;82;21178;-71
2022/05/10 01:42:07;;;;;;;12.80;4.60;;;;;;;9.98;47.73;101446.08;1730826;82;20987;-72
2022/05/10 01:44:44;;;;;;;8.98;4.05;;;;;;;9.92;47.81;101446.64;1730045;81;21042;-71
2022/05/10 01:47:15;;;;;;;11.85;3.40;;;;;;;9.89;47.90;101438.91;1709575;82;21074;-71
2022/05/10 01:49:52;;;;;;;12.10;3.80;;;;;;;9.83;47.99;101440.80;1715788;82;21050;-71
2022/05/10 01:52:46;;;;;;;10.40;3.87;;;;;;;9.80;48.08;101435.76;1730991;82;21695;-71
2022/05/10 01:55:26;;;;;;;11.33;3.30;;;;;;;9.75;48.15;101441.98;1730804;82;20983;-71
2022/05/10 01:57:53;;;;;;;10.20;3.40;;;;;;;9.71;48.25;101437.94;1707432;82;21077;-71
2022/05/10 02:00:23;;;;;;;7.87;4.12;;;;;;;9.68;48.34;101442.18;1705534;84;21022;-71
2022/05/10 02:03:17;;;;;;;7.12;3.70;;;;;;;9.63;48.43;101437.78;1705510;84;27292;-71
2022/05/10 02:06:05;;;;;;;9.55;3.42;;;;;;;9.63;48.53;101437.78;1732036;82;21102;-71
2022/05/10 02:08:46;;;;;;;9.33;3.25;;;;;;;9.58;48.63;101428.02;1740339;82;20989;-71
2022/05/10 02:11:14;;;;;;;10.45;3.65;;;;;;;9.54;48.72;101432.29;1739046;82;20998;-71
2022/05/10 02:13:51;;;;;;;8.50;3.47;;;;;;;9.49;48.84;101421.23;1739706;82;21057;-71
2022/05/10 02:16:27;;;;;;;8.40;3.35;;;;;;;9.50;48.94;101430.03;1719213;82;21094;-71
2022/05/10 02:18:59;;;;;;;13.25;3.80;;;;;;;9.46;49.01;101424.14;1705378;83;21046;-71
2022/05/10 02:21:29;;;;;;;6.97;2.95;;;;;;;9.41;49.12;101421.06;1705443;84;21006;-71
2022/05/10 02:24:07;;;;;;;10.10;3.65;;;;;;;9.36;49.20;101420.63;1730290;82;20996;-71
2022/05/10 02:26:38;;;;;;;15.43;4.20;;;;;;;9.32;49.31;101413.88;1734576;82;21459;-71
2022/05/10 02:29:15;;;;;;;14.25;3.65;;;;;;;9.29;49.38;101413.34;1734708;82;21503;-71
2022/05/10 02:34:40;;;;;;;9.73;3.90;;;;;;;9.24;49.59;101411.08;1734728;82;21049;-71
2022/05/10 02:37:06;;;;;;;12.10;4.00;;;;;;;9.18;49.69;101406.31;1703541;82;21038;-71
2022/05/10 02:39:32;;;;;;;14.15;4.47;;;;;;;9.17;49.80;101408.62;1735025;82;20907;-71
2022/05/10 02:41:59;;;;;;;14.50;4.47;;;;;;;9.15;49.89;101403.09;1734877;82;21480;-71
2022/05/10 02:44:25;;;;;;;11.88;3.67;;;;;;;9.13;49.99;101403.20;1734002;82;21958;-71
2022/05/10 02:46:51;;;;;;;8.48;3.62;;;;;;;9.09;50.08;101399.13;1734789;82;20999;-71
2022/05/10 02:49:18;;;;;;;11.33;4.15;;;;;;;9.08;50.16;101401.95;1734782;82;20895;-71
2022/05/10 02:51:44;;;;;;;6.53;3.87;;;;;;;9.04;50.27;101390.73;1731370;82;21002;-71
2022/05/10 02:54:10;;;;;;;10.75;4.40;;;;;;;9.03;50.36;101393.88;1705516;84;21085;-71
2022/05/10 02:56:36;;;;;;;11.60;4.62;;;;;;;9.00;50.44;101391.97;1701935;83;21083;-71
2022/05/10 02:59:13;;;;;;;9.50;3.95;;;;;;;8.97;50.54;101392.25;1692438;84;20893;-71
2022/05/10 03:02:08;;;;;;;8.78;4.03;;;;;;;8.97;50.64;101386.92;1707885;83;21633;-71
2022/05/10 03:04:36;;;;;;;9.50;3.80;;;;;;;8.95;50.73;101391.52;1712065;83;21086;-71
2022/05/10 03:07:04;;;;;;;13.43;4.12;;;;;;;8.89;50.84;101390.26;1712526;83;20997;-71
2022/05/10 03:09:31;;;;;;;8.95;4.25;;;;;;;8.87;50.92;101396.67;1712877;83;21703;-71
2022/05/10 03:11:57;;;;;;;10.70;4.08;;;;;;;8.84;51.02;101391.62;1702237;83;21472;-71
2022/05/10 03:14:23;;;;;;;8.93;4.25;;;;;;;8.83;51.09;101389.44;1703674;83;21007;-71
2022/05/10 03:16:49;;;;;;;11.55;4.53;;;;;;;8.80;51.18;101388.39;1724364;83;20976;-71
2022/05/10 03:19:16;;;;;;;14.43;4.53;;;;;;;8.80;51.30;101386.20;1724749;83;20894;-71
2022/05/10 03:21:42;;;;;;;13.80;4.70;;;;;;;8.78;51.39;101389.51;1715023;83;21331;-71
2022/05/10 03:24:08;;;;;;;15.88;4.42;;;;;;;8.77;51.47;101382.49;1724434;83;21467;-71
2022/05/10 03:26:35;;;;;;;8.43;4.05;;;;;;;8.78;51.55;101386.84;1724648;83;20919;-71
2022/05/10 03:29:01;;;;;;;11.53;4.60;;;;;;;8.77;51.64;101386.48;1713069;83;21574;-71
2022/05/10 03:31:28;;;;;;;9.95;4.62;;;;;;;8.78;51.73;101386.84;1708765;83;21054;-71
2022/05/10 03:36:39;;;;;;;9.50;4.00;;;;;;;8.82;51.86;101385.13;1695077;84;21010;-71
2022/05/10 03:39:05;;;;;;;11.88;4.35;;;;;;;8.84;51.95;101388.47;1696273;83;21240;-71
2022/05/10 03:41:31;;;;;;;7.70;4.12;;;;;;;8.86;52.03;101387.03;1712686;83;21066;-71
2022/05/10 03:43:57;;;;;;;10.98;4.87;;;;;;;8.87;52.08;101390.02;1687400;85;21047;-71
2022/05/10 03:46:23;;;;;;;13.40;4.62;;;;;;;8.92;52.16;101387.81;1687072;85;21166;-71
2022/05/10 03:48:50;;;;;;;9.98;4.17;;;;;;;8.95;52.22;101381.73;1695648;84;20914;-71
2022/05/10 03:51:17;;;;;;;8.73;3.90;;;;;;;9.05;52.32;101381.75;1695778;83;21003;-71
2022/05/10 03:53:43;;;;;;;9.13;6.75;;;;;;;9.50;52.56;101380.28;1712003;83;21523;-71
2022/05/10 03:56:10;;;;;;;14.98;4.65;;;;;;;9.97;52.42;101380.42;1700799;83;21007;-71
2022/05/10 03:58:37;;;;;;;11.30;4.78;;;;;;;10.67;52.45;101379.16;1747237;81;21265;-72
2022/05/10 04:01:04;;;;;;;8.95;4.08;;;;;;;11.67;52.36;101372.80;1766768;81;21077;-72
2022/05/10 04:03:30;;;;;;;8.93;4.80;;;;;;;12.56;51.96;101371.32;1736845;82;20998;-72
2022/05/10 04:05:56;;;;;;;9.10;4.10;;;;;;;13.16;51.49;101375.61;1736879;82;20977;-72
2022/05/10 04:08:23;;;;;;;8.28;4.17;;;;;;;13.79;51.13;101369.72;1746561;81;20910;-72
2022/05/10 04:10:49;;;;;;;13.58;4.17;;;;;;;14.61;50.77;101369.46;1767104;81;21915;-72
2022/05/10 04:13:15;;;;;;;6.28;4.28;;;;;;;15.11;50.14;101357.02;1736238;82;21041;-72
2022/05/10 04:15:42;;;;;;;8.25;4.65;;;;;;;15.47;49.63;101351.94;1766771;81;21459;-72
2022/05/10 04:18:08;;;;;;;12.05;4.58;;;;;;;15.95;49.05;101357.47;1735078;82;21005;-72
2022/05/10 04:20:34;;;;;;;8.98;4.25;;;;;;;16.27;48.51;101359.86;1730838;82;21672;-72
2022/05/10 04:23:00;;;;;;;12.07;4.53;;;;;;;16.67;47.76;101355.09;1731078;82;21111;-73
2022/05/10 04:25:26;;;;;;;8.85;4.35;;;;;;;16.86;47.19;101354.00;1730975;82;21032;-73
2022/05/10 04:27:53;;;;;;;9.55;4.00;;;;;;;17.14;46.67;101349.27;1730542;82;20985;-72
2022/05/10 04:30:19;;;;;;;8.63;4.40;;;;;;;17.27;46.08;101357.02;1747353;81;21040;-73
2022/05/10 04:32:45;;;;;;;8.63;4.40;;;;;;;17.39;45.50;101356.83;1722327;83;21058;-73
2022/05/10 04:35:11;;;;;;;11.22;4.12;;;;;;;17.67;44.88;101350.70;1752155;81;22023;-73
2022/05/10 04:37:37;;;;;;;7.75;4.17;;;;;;;17.82;44.44;101344.73;1761665;81;20992;-73
2022/05/10 04:42:49;;;;;;;11.95;5.08;;;;;;;18.35;43.40;101348.69;1748655;81;21045;-73
2022/05/10 04:45:15;;;;;;;11.38;4.83;;;;;;;18.08;42.34;101346.31;1736893;81;21611;-73
2022/05/10 04:47:43;;;;;;;11.50;5.25;;;;;;;17.60;42.20;101346.59;1706555;81;21900;-73
2022/05/10 04:50:09;;;;;;;13.68;4.75;;;;;;;17.01;42.32;101348.60;1766915;81;20958;-73
2022/05/10 04:52:36;;;;;;;9.18;4.83;;;;;;;16.53;42.57;101346.47;1736493;82;21664;-74
2022/05/10 04:55:02;;;;;;;9.33;5.33;;;;;;;15.82;42.72;101347.83;1767312;80;20986;-73
2022/05/10 04:57:29;;;;;;;8.85;4.40;;;;;;;15.56;42.99;101346.84;1735656;81;21149;-73
2022/05/10 04:59:55;;;;;;;11.75;4.87;;;;;;;15.46;43.12;101341.68;1762690;81;21174;-73
2022/05/10 05:02:21;;;;;;;10.10;4.35;;;;;;;15.32;43.16;101353.70;1764256;81;20852;-73
2022/05/10 05:04:47;;;;;;;10.40;4.47;;;;;;;15.27;43.23;101347.50;1733343;82;21014;-73
2022/05/10 05:07:13;;;;;;;12.70;5.12;;;;;;;15.33;43.27;101342.78;1730441;82;21062;-73
2022/05/10 05:09:39;;;;;;;10.15;4.87;;;;;;;15.60;43.45;101345.98;1739607;81;21737;-73
2022/05/10 05:12:06;;;;;;;9.23;4.40;;;;;;;15.49;43.33;101337.32;1733245;82;22035;-73
2022/05/10 05:14:34;;;;;;;9.40;4.83;;;;;;;15.48;43.42;101339.67;1733363;82;21518;-73
2022/05/10 05:16:59;;;;;;;8.40;5.20;;;;;;;15.61;43.41;101335.56;1755717;81;21030;-73
2022/05/10 05:19:26;;;;;;;7.40;4.50;;;;;;;15.59;43.45;101336.23;1763865;81;20911;-73
2022/05/10 05:21:52;;;;;;;9.05;5.05;;;;;;;15.73;43.47;101336.80;1763374;81;20987;-73
2022/05/10 05:24:18;;;;;;;7.50;4.72;;;;;;;15.68;43.39;101332.48;1758698;81;21045;-73
2022/05/10 05:26:46;;;;;;;10.48;4.42;;;;;;;15.74;43.44;101337.13;1717021;82;20993;-73
2022/05/10 05:29:12;;;;;;;11.65;4.92;;;;;;;15.95;43.44;101326.53;1742378;81;21003;-74
2022/05/10 05:31:38;;;;;;;13.70;5.47;;;;;;;15.80;43.33;101335.89;1746888;81;20948;-74
2022/05/10 05:34:04;;;;;;;12.03;4.92;;;;;;;15.76;43.37;101329.73;1749124;81;21006;-73
2022/05/10 05:36:30;;;;;;;11.73;4.80;;;;;;;15.83;43.42;101328.00;1718676;81;21276;-73
2022/05/10 05:38:58;;;;;;;9.13;5.40;;;;;;;15.98;43.40;101328.84;1756780;81;21058;-73
2022/05/10 05:41:24;;;;;;;12.47;4.83;;;;;;;16.00;43.40;101329.52;1739993;81;21033;-73
2022/05/10 05:43:54;;;;;;;10.40;5.22;;;;;;;15.93;43.39;101328.58;1756354;81;20887;-74
2022/05/10 05:46:21;;;;;;;9.30;4.65;;;;;;;16.04;43.42;101324.11;1742991;81;37798;-73
2022/05/10 05:48:49;;;;;;;10.93;5.28;;;;;;;16.10;43.47;101319.33;1746239;81;21242;-73
2022/05/10 05:51:15;;;;;;;10.30;5.15;;;;;;;16.29;43.53;101325.51;1745455;81;21002;-74
2022/05/10 05:53:44;;;;;;;8.60;5.45;;;;;;;16.53;43.55;101326.28;1759109;81;21066;-74
2022/05/10 05:56:11;;;;;;;13.35;4.85;;;;;;;16.63;43.50;101328.20;1759136;81;21006;-74
2022/05/10 05:58:45;;;;;;;8.43;4.95;;;;;;;16.80;43.58;101333.72;1767704;80;21463;-74
2022/05/10 06:01:15;;;;;;;9.73;4.80;;;;;;;17.02;43.51;101327.38;1758044;81;21881;-73
2022/05/10 06:03:42;;;;;;;14.25;4.85;;;;;;;17.01;43.40;101333.78;1758813;81;21035;-74
2022/05/10 06:06:10;;;;;;;13.90;5.37;;;;;;;16.93;43.37;101325.80;1708097;83;21007;-74
2022/05/10 06:08:41;;;;;;;9.93;5.28;;;;;;;17.08;43.42;101325.27;1745793;81;21488;-74
2022/05/10 06:11:09;;;;;;;9.93;5.03;;;;;;;17.32;43.42;101327.60;1741259;81;21586;-74
2022/05/10 06:13:40;;;;;;;14.00;5.53;;;;;;;17.56;43.36;101321.02;1734421;81;21056;-74
2022/05/10 06:16:07;;;;;;;14.38;5.17;;;;;;;17.77;43.36;101322.88;1705926;81;21740;-74
2022/05/10 06:18:34;;;;;;;11.43;5.45;;;;;;;17.71;43.21;101316.41;1673267;84;21573;-74
2022/05/10 06:21:00;;;;;;;9.73;4.47;;;;;;;17.64;43.14;101316.86;1756706;81;21014;-74
2022/05/10 06:23:28;;;;;;;9.08;4.72;;;;;;;17.72;43.17;101315.38;1731638;81;21018;-74
2022/05/10 06:25:57;;;;;;;11.60;4.58;;;;;;;17.81;43.13;101315.55;1757709;81;21787;-74
2022/05/10 06:28:29;;;;;;;9.93;4.67;;;;;;;18.00;43.08;101315.41;1715561;81;22154;-74
2022/05/10 06:30:56;;;;;;;10.53;4.97;;;;;;;18.30;43.12;101314.16;1737644;80;21502;-74
2022/05/10 06:33:28;;;;;;;9.58;4.83;;;;;;;18.46;42.95;101295.47;1688266;82;21493;-74
2022/05/10 06:35:58;;;;;;;10.93;4.53;;;;;;;18.54;42.78;101307.50;1717530;81;21007;-74
2022/05/10 06:38:29;;;;;;;13.48;5.08;;;;;;;18.48;42.76;101307.73;1691877;82;21062;-74
2022/05/10 06:41:03;;;;;;;8.55;4.33;;;;;;;18.71;42.77;101310.70;1685707;83;21051;-74
2022/05/10 06:43:35;;;;;;;14.13;5.10;;;;;;;18.83;42.63;101312.61;1700071;80;21066;-74
2022/05/10 06:46:10;;;;;;;10.05;4.37;;;;;;;18.79;42.50;101310.50;1713458;81;21093;-73
2022/05/10 06:48:45;;;;;;;16.07;5.33;;;;;;;18.87;42.46;101306.28;1713152;82;21488;-74
2022/05/10 06:51:11;;;;;;;9.05;4.80;;;;;;;19.04;42.44;101300.83;1724254;81;21104;-74
2022/05/10 06:53:42;;;;;;;12.10;5.10;;;;;;;19.35;42.46;101301.13;1747110;80;21045;-74
2022/05/10 06:56:15;;;;;;;8.75;5.10;;;;;;;19.12;42.02;101303.36;1741788;80;20995;-74
2022/05/10 06:58:41;;;;;;;8.70;4.55;;;;;;;18.77;42.08;101299.07;1751481;80;21037;-74
2022/05/10 07:01:12;;;;;;;13.50;5.17;;;;;;;18.87;42.02;101299.52;1708961;81;21592;-73
2022/05/10 07:03:47;;;;;;;9.98;5.22;;;;;;;18.77;42.09;101297.20;1745497;80;21195;-74
2022/05/10 07:06:27;;;;;;;8.43;5.60;;;;;;;18.59;41.94;101292.86;1743112;80;21683;-74
2022/05/10 07:08:52;;;;;;;10.58;5.30;;;;;;;18.57;42.06;101293.59;1742024;80;20991;-74
2022/05/10 07:11:23;;;;;;;9.60;5.33;;;;;;;18.64;42.13;101292.27;1745181;80;21038;-74
2022/05/10 07:13:59;;;;;;;11.15;5.00;;;;;;;18.77;42.08;101285.05;1740772;80;21101;-74
2022/05/10 07:16:27;;;;;;;12.10;4.45;;;;;;;19.02;42.11;101284.50;1741540;80;21164;-73
2022/05/10 07:19:00;;;;;;;14.43;5.92;;;;;;;19.01;42.02;101285.02;1755799;80;21096;-74
2022/05/10 07:21:33;;;;;;;9.53;5.08;;;;;;;19.26;42.06;101280.72;1726051;80;21018;-74
2022/05/10 07:24:01;;;;;;;8.98;4.90;;;;;;;19.64;42.07;101278.30;1751402;80;21112;-74
2022/05/10 07:26:35;;;;;;;12.73;6.20;;;;;;;19.49;41.95;101277.68;1735453;80;21542;-75
2022/05/10 07:29:05;;;;;;;10.80;6.08;;;;;;;19.66;42.04;101273.53;1723723;81;21745;-74
2022/05/10 07:31:37;;;;;;;16.95;6.22;;;;;;;19.81;41.87;101274.64;1751216;80;21072;-73
2022/05/10 07:34:09;;;;;;;11.57;5.33;;;;;;;19.84;41.86;101274.25;1753679;80;21540;-74
2022/05/10 07:36:40;;;;;;;14.47;5.60;;;;;;;19.91;41.79;101269.67;1755839;80;21493;-74
2022/05/10 07:39:10;;;;;;;13.48;5.50;;;;;;;20.15;41.89;101274.42;1752381;80;20999;-73
2022/05/10 07:41:39;;;;;;;12.78;5.30;;;;;;;20.35;41.78;101274.40;1718103;80;21160;-74
2022/05/10 07:44:08;;;;;;;10.68;4.95;;;;;;;20.58;41.77;101270.70;1739470;80;21054;-74
2022/05/10 07:46:37;;;;;;;16.17;5.60;;;;;;;20.71;41.60;101268.45;1754390;80;21077;-74
2022/05/10 07:49:10;;;;;;;10.48;5.85;;;;;;;20.83;41.41;101262.64;1747353;80;21060;-74
2022/05/10 07:51:38;;;;;;;10.25;5.50;;;;;;;20.89;41.38;101261.80;1735732;80;21081;-74
2022/05/10 07:54:06;;;;;;;15.78;5.12;;;;;;;21.06;41.23;101256.69;1728294;81;21002;-74
2022/05/10 07:56:37;;;;;;;18.10;5.95;;;;;;;20.86;40.91;101259.52;1730963;81;21010;-74
2022/05/10 07:59:07;;;;;;;8.20;5.55;;;;;;;20.60;40.71;101261.81;1738881;81;28253;-74
2022/05/10 08:01:35;;;;;;;12.50;6.85;;;;;;;20.78;40.76;101252.98;1748147;82;21452;-74
2022/05/10 08:04:04;;;;;;;15.28;6.33;;;;;;;20.91;40.59;101256.98;1712638;82;21828;-74
2022/05/10 08:06:30;;;;;;;8.58;4.87;;;;;;;21.07;40.52;101248.88;1691698;81;21803;-73
2022/05/10 08:09:03;;;;;;;10.28;5.30;;;;;;;21.16;40.43;101252.48;1733576;81;21010;-74
2022/05/10 08:11:30;;;;;;;7.97;4.92;;;;;;;21.07;40.11;101245.64;1706902;82;21014;-74
2022/05/10 08:13:58;;;;;;;8.33;4.50;;;;;;;21.27;40.11;101249.08;1751738;81;20999;-74
2022/05/10 08:16:31;;;;;;;11.75;5.08;;;;;;;21.53;40.03;101245.88;1746733;81;21038;-74
2022/05/10 08:19:02;;;;;;;11.05;4.42;;;;;;;21.70;39.86;101236.95;1760715;80;20975;-74
2022/05/10 08:21:33;;;;;;;;;;;;;;;21.57;39.42;101245.73;1770649;80;21562;-74
2022/05/10 08:24:05;;;;;;;9.53;3.65;;;;;;;21.25;38.90;101243.58;1761643;81;20153;-74
2022/05/10 08:26:31;;;;;;;6.80;3.58;;;;;;;21.22;38.67;101243.47;1731578;81;21047;-74
2022/05/10 08:29:01;;;;;;;12.10;3.90;;;;;;;21.31;38.52;101235.38;1746318;81;21538;-74
2022/05/10 08:31:30;;;;;;;;;;;;;;;21.38;38.22;101235.33;1764465;81;21295;-74
2022/05/10 08:33:57;;;;;;;6.42;3.30;;;;;;;21.63;38.23;101234.82;1761789;81;20148;-74
2022/05/10 08:36:25;;;;;;;8.05;4.28;;;;;;;21.92;38.17;101236.02;1761228;81;21007;-74
2022/05/10 08:38:57;;;;;;;9.93;3.77;;;;;;;21.83;37.70;101240.06;1728296;81;21534;-74
2022/05/10 08:41:42;;;;;;;11.60;3.50;;;;;;;21.75;37.41;101232.19;1724104;81;21010;-74
2022/05/10 08:44:18;;;;;;;8.30;3.77;;;;;;;21.78;37.38;101231.22;1751682;81;21378;-74
2022/05/10 08:47:02;;;;;;;6.62;3.80;;;;;;;22.16;37.35;101228.38;1761678;80;21038;-74
2022/05/10 08:49:48;;;;;;;9.45;3.58;;;;;;;22.19;37.19;101232.00;1734416;81;21010;-74
2022/05/10 08:52:17;;;;;;;10.30;3.95;;;;;;;22.32;37.12;101229.13;1760727;80;21019;-75
2022/05/10 08:54:45;;;;;;;8.63;3.60;;;;;;;22.57;37.04;101225.48;1711471;81;21152;-74
2022/05/10 08:57:54;;;;;;;6.87;3.72;;;;;;;22.64;36.86;101222.16;1751630;80;21456;-74
2022/05/10 09:00:51;;;;;;;10.30;3.75;;;;;;;22.26;36.33;101216.98;1747944;81;21062;-73
2022/05/10 09:03:45;;;;;;;11.35;4.80;;;;;;;22.14;36.12;101220.97;1714862;81;21050;-72
2022/05/10 09:06:20;;;;;;;10.53;3.65;;;;;;;22.24;36.01;101222.63;1713365;82;21062;-73
2022/05/10 09:09:26;;;;;;;9.20;3.60;;;;;;;22.34;35.89;101223.48;1721116;82;21006;-73
2022/05/10 09:12:05;;;;;;;8.20;4.53;;;;;;;22.12;35.58;101224.45;1710516;81;22083;-73
2022/05/10 09:14:35;;;;;;;8.85;4.00;;;;;;;22.22;35.65;101215.24;1748420;81;21046;-73
2022/05/10 09:17:03;;;;;;;8.35;3.58;;;;;;;22.23;35.56;101208.76;1748311;80;21585;-73
2022/05/10 09:19:39;;;;;;;6.55;3.40;;;;;;;22.28;35.48;101212.97;1731469;82;21002;-73
2022/05/10 09:22:39;;;;;;;7.10;3.60;;;;;;;22.37;35.49;101210.27;1740576;81;21058;-73
2022/05/10 09:25:39;;;;;;;6.35;3.50;;;;;;;22.39;35.43;101208.14;1734948;81;21071;-73
2022/05/10 09:28:44;;;;;;;6.53;3.35;;;;;;;22.44;35.30;101207.98;1738083;81;21057;-73
2022/05/10 09:37:31;;;;;;;4.65;2.42;;;;;;;22.74;34.83;101188.47;1747249;81;21937;-73
2022/05/10 09:40:28;;;;;;;13.45;3.42;;;;;;;22.89;34.44;101184.28;1726104;82;21970;-73
2022/05/10 09:43:06;;;;;;;6.87;3.58;;;;;;;22.69;34.13;101187.82;1714580;83;21134;-73
2022/05/10 09:45:39;;;;;;;5.62;2.72;;;;;;;22.69;34.01;101191.06;1716682;82;20999;-73
2022/05/10 09:48:14;;;;;;;4.78;3.00;;;;;;;22.88;34.04;101177.17;1694180;83;21010;-73
2022/05/10 09:50:50;;;;;;;6.12;3.05;;;;;;;22.62;33.71;101173.45;1720883;81;21100;-73
2022/05/10 09:53:25;;;;;;;14.70;3.87;;;;;;;22.46;33.50;101166.44;1728697;82;21132;-73
2022/05/10 09:56:05;;;;;;;8.58;3.85;;;;;;;22.58;33.43;101173.61;1730125;82;21565;-73
2022/05/10 09:58:42;;;;;;;10.03;3.37;;;;;;;22.59;33.11;101178.52;1729457;81;21022;-73
2022/05/10 10:01:15;;;;;;;5.45;2.67;;;;;;;22.27;32.65;101169.17;1726192;81;21081;-73
2022/05/10 10:03:43;;;;;;;7.85;2.77;;;;;;;22.21;32.61;101162.47;1738698;81;21066;-73
2022/05/10 10:06:23;;;;;;;9.18;3.00;;;;;;;22.28;32.59;101161.86;1739614;80;21246;-73
2022/05/10 10:08:55;;;;;;;11.78;3.75;;;;;;;22.29;32.41;101157.56;1657901;83;21128;-73
2022/05/10 10:11:31;;;;;;;8.70;2.58;;;;;;;22.55;32.54;101146.05;1722111;81;20989;-73
2022/05/10 10:14:07;;;;;;;8.03;3.33;;;;;;;22.63;32.27;101155.22;1756444;80;20998;-73
2022/05/10 10:16:41;;;;;;;12.20;3.30;;;;;;;22.45;32.14;101151.20;1726755;83;21093;-73
2022/05/10 10:19:40;;;;;;;9.35;3.00;;;;;;;22.47;32.22;101143.64;1706438;82;20992;-73
2022/05/10 10:22:19;;;;;;;7.22;2.90;;;;;;;22.52;32.09;101138.36;1766740;80;21549;-73
2022/05/10 10:25:13;;;;;;;7.35;2.80;;;;;;;22.24;31.75;101137.02;1738605;80;21491;-73
2022/05/10 10:27:48;;;;;;;5.30;2.40;;;;;;;22.32;31.88;101134.00;1755167;80;21499;-73
2022/05/10 10:30:30;;;;;;;6.87;2.70;;;;;;;22.69;31.88;101132.59;1710809;81;21064;-73
2022/05/10 10:33:10;;;;;;;6.50;2.77;;;;;;;22.57;31.73;101130.32;1701660;84;21670;-73
2022/05/10 10:35:59;;;;;;;7.85;3.37;;;;;;;22.34;31.68;101121.00;1666671;82;21821;-73
2022/05/10 10:38:47;;;;;;;11.40;3.12;;;;;;;22.50;31.81;101121.42;1674420;83;21109;-74
2022/05/10 10:41:18;;;;;;;8.25;3.10;;;;;;;22.58;31.70;101121.11;1701623;84;21049;-73
2022/05/10 10:44:10;;;;;;;5.92;3.12;;;;;;;22.72;31.78;101120.73;1721119;81;21057;-73
2022/05/10 10:47:27;;;;;;;5.97;2.65;;;;;;;22.67;31.67;101118.38;1715022;82;21192;-73
2022/05/10 10:50:17;;;;;;;6.58;3.05;;;;;;;22.82;31.88;101107.91;1727287;81;21510;-73
2022/05/10 10:52:43;;;;;;;9.23;3.33;;;;;;;22.97;31.94;101100.15;1738312;81;21065;-73
2022/05/10 10:55:09;;;;;;;9.00;2.90;;;;;;;22.82;31.64;101097.03;1732151;81;20962;-73
2022/05/10 10:57:44;;;;;;;6.65;3.00;;;;;;;22.76;31.56;101093.89;1751472;80;20999;-73
2022/05/10 11:00:19;;;;;;;6.28;2.87;;;;;;;22.86;31.60;101089.55;1753459;81;21332;-73
2022/05/10 11:03:10;;;;;;;9.15;3.00;;;;;;;22.94;31.70;101080.19;1745094;81;21467;-73
2022/05/10 11:06:03;;;;;;;8.38;3.10;;;;;;;23.09;31.84;101080.56;1727159;83;21050;-73
2022/05/10 11:09:10;;;;;;;7.55;3.20;;;;;;;23.27;31.90;101074.19;1757533;80;21034;-73
2022/05/10 11:12:16;;;;;;;6.25;3.52;;;;;;;23.39;31.80;101071.77;1732972;81;21507;-73
2022/05/10 11:15:21;;;;;;;6.35;2.67;;;;;;;23.50;31.64;101072.03;1748305;80;21176;-74
2022/05/10 11:18:13;;;;;;;5.37;2.95;;;;;;;23.51;31.60;101064.13;1756942;81;21062;-74
2022/05/10 11:21:09;;;;;;;11.40;3.40;;;;;;;23.47;31.54;101060.26;1755648;81;21014;-74
2022/05/10 11:24:00;;;;;;;7.05;2.70;;;;;;;23.55;31.58;101057.15;1738412;81;21038;-74
2022/05/10 11:26:43;;;;;;;5.62;2.65;;;;;;;23.59;31.31;101052.88;1755942;81;20997;-73
2022/05/10 11:29:56;;;;;;;7.60;2.70;;;;;;;23.29;31.20;101053.82;1754847;80;22244;-73
2022/05/10 11:32:39;;;;;;;7.85;3.12;;;;;;;23.31;31.17;101046.26;1727399;82;21035;-73
2022/05/10 11:35:41;;;;;;;8.85;2.62;;;;;;;23.30;31.03;101043.23;1725062;80;21462;-73
2022/05/10 11:38:24;;;;;;;7.83;2.85;;;;;;;23.40;31.12;101048.07;1741867;80;21038;-73
2022/05/10 11:41:15;;;;;;;3.72;2.70;;;;;;;23.50;31.06;101043.44;1744800;81;21029;-73
2022/05/10 11:43:50;;;;;;;8.73;3.37;;;;;;;23.43;30.87;101034.04;1743245;81;21839;-74
2022/05/10 11:46:40;;;;;;;6.08;2.85;;;;;;;23.23;30.81;101033.00;1739714;81;20934;-73
2022/05/10 11:49:44;;;;;;;6.22;3.45;;;;;;;23.40;30.87;101028.48;1745136;80;21026;-74
2022/05/10 11:52:22;;;;;;;4.33;3.15;;;;;;;23.26;30.60;101016.19;1740012;81;21877;-73
2022/05/10 11:55:10;;;;;;;9.20;3.62;;;;;;;23.23;30.66;101015.84;1749946;81;21464;-73
2022/05/10 11:57:37;;;;;;;7.30;2.37;;;;;;;23.22;30.64;101006.84;1743878;81;21456;-73
2022/05/10 12:00:34;;;;;;;6.80;2.58;;;;;;;23.22;30.63;101005.48;1721210;80;21100;-74
2022/05/10 12:03:05;;;;;;;7.75;2.65;;;;;;;23.22;30.58;100987.78;1747469;80;21124;-72
2022/05/10 12:05:35;;;;;;;6.90;2.50;;;;;;;23.22;30.55;100988.34;1755692;80;21002;-72
2022/05/10 12:08:04;;;;;;;6.17;2.67;;;;;;;23.43;30.68;100984.20;1727459;81;21021;-72
2022/05/10 12:10:40;;;;;;;6.60;3.02;;;;;;;23.66;30.71;100980.05;1764123;81;21521;-72